ABI298 GOBD-FNBJ
Flight info
| Callsign | ABI298 |
|---|---|
| Flight time | N/A |
| Altitude | 33000 |
| Route | SISNU UA601 TYE DCT LIREX UR603 STM UA400 NATAR |
| Aircraft | B77L/H-SDE1E2E3FGHIJ2J3J4J5M1RWXYZ/LB1D1 |
Departure
| Time | 2026-05-01 13:54 |
|---|---|
| Airport | Blaise Diagne International Airport (GOBD) |
Arrival
| Time | N/A |
|---|---|
| Airport | Dr. Antonio Agostinho Neto International Airport (FNBJ) |
| Time | Latitude | Longitude | Altitude | Speed | Heading |
|---|---|---|---|---|---|
| 2026-05-01 13:34 | 14.65602 | -17.07700 | 295 ft | 0 kts | 270° |
| 2026-05-01 13:45 | 14.65601 | -17.07686 | 295 ft | 2 kts | 271° |
| 2026-05-01 13:46 | 14.65601 | -17.07671 | 295 ft | 2 kts | 283° |
| 2026-05-01 13:46 | 14.65595 | -17.07657 | 295 ft | 2 kts | 302° |
| 2026-05-01 13:46 | 14.65586 | -17.07645 | 295 ft | 2 kts | 319° |
| 2026-05-01 13:46 | 14.65573 | -17.07636 | 295 ft | 2 kts | 336° |
| 2026-05-01 13:47 | 14.65559 | -17.07631 | 295 ft | 2 kts | 352° |
| 2026-05-01 13:47 | 14.65544 | -17.07631 | 295 ft | 2 kts | 9° |
| 2026-05-01 13:47 | 14.65530 | -17.07635 | 295 ft | 2 kts | 26° |
| 2026-05-01 13:47 | 14.65521 | -17.07640 | 295 ft | 0 kts | 37° |
| 2026-05-01 13:48 | 14.65518 | -17.07642 | 295 ft | 0 kts | 38° |
| 2026-05-01 13:50 | 14.65519 | -17.07641 | 295 ft | 1 kts | 38° |
| 2026-05-01 13:51 | 14.65539 | -17.07613 | 295 ft | 8 kts | 73° |
| 2026-05-01 13:51 | 14.65535 | -17.07540 | 295 ft | 10 kts | 92° |
| 2026-05-01 13:51 | 14.65534 | -17.07474 | 295 ft | 8 kts | 90° |
| 2026-05-01 13:51 | 14.65534 | -17.07423 | 295 ft | 6 kts | 90° |
| 2026-05-01 13:52 | 14.65535 | -17.07381 | 295 ft | 6 kts | 89° |
| 2026-05-01 13:52 | 14.65537 | -17.07323 | 295 ft | 8 kts | 88° |
| 2026-05-01 13:52 | 14.65544 | -17.07283 | 295 ft | 3 kts | 47° |
| 2026-05-01 13:52 | 14.65558 | -17.07278 | 295 ft | 0 kts | 3° |
| 2026-05-01 13:53 | 14.65559 | -17.07278 | 295 ft | 0 kts | 0° |
| 2026-05-01 13:53 | 14.65575 | -17.07278 | 295 ft | 10 kts | 0° |
| 2026-05-01 13:53 | 14.65882 | -17.07278 | 295 ft | 80 kts | 360° |
| 2026-05-01 13:54 | 14.66697 | -17.07282 | 296 ft | 150 kts | 359° |
| 2026-05-01 13:54 | 14.67949 | -17.07289 | 442 ft | 198 kts | 360° |
| 2026-05-01 13:54 | 14.69290 | -17.07300 | 1295 ft | 198 kts | 359° |
| 2026-05-01 13:54 | 14.70674 | -17.07315 | 2250 ft | 197 kts | 359° |
| 2026-05-01 13:55 | 14.72050 | -17.07326 | 2839 ft | 202 kts | 359° |
| 2026-05-01 13:55 | 14.73452 | -17.07340 | 3401 ft | 205 kts | 360° |
| 2026-05-01 13:55 | 14.74940 | -17.07357 | 3761 ft | 222 kts | 0° |
| 2026-05-01 13:55 | 14.76540 | -17.07371 | 4228 ft | 234 kts | 1° |
| 2026-05-01 13:56 | 14.78165 | -17.07384 | 4871 ft | 238 kts | 2° |
| 2026-05-01 13:56 | 14.79795 | -17.07087 | 5454 ft | 240 kts | 24° |
| 2026-05-01 13:56 | 14.81208 | -17.06129 | 5927 ft | 250 kts | 45° |
| 2026-05-01 13:56 | 14.82193 | -17.04604 | 6229 ft | 268 kts | 69° |
| 2026-05-01 13:57 | 14.82469 | -17.02678 | 6812 ft | 276 kts | 89° |
| 2026-05-01 13:57 | 14.82417 | -17.01375 | 7274 ft | 277 kts | 90° |
| 2026-05-01 13:57 | 14.82351 | -16.98722 | 8135 ft | 280 kts | 88° |
| 2026-05-01 13:57 | 14.82350 | -16.96707 | 8763 ft | 282 kts | 88° |
| 2026-05-01 13:58 | 14.82362 | -16.94673 | 9382 ft | 284 kts | 88° |
| 2026-05-01 13:58 | 14.82378 | -16.92650 | 9983 ft | 287 kts | 89° |
| 2026-05-01 13:58 | 14.82395 | -16.90552 | 10399 ft | 298 kts | 89° |
| 2026-05-01 13:58 | 14.82369 | -16.88348 | 10685 ft | 315 kts | 95° |
| 2026-05-01 13:59 | 14.81988 | -16.86060 | 10984 ft | 331 kts | 105° |
| 2026-05-01 13:59 | 14.81183 | -16.83806 | 11301 ft | 346 kts | 113° |
| 2026-05-01 13:59 | 14.80172 | -16.81483 | 11656 ft | 360 kts | 114° |
| 2026-05-01 13:59 | 14.79116 | -16.79065 | 12032 ft | 374 kts | 114° |
| 2026-05-01 14:00 | 14.78049 | -16.76606 | 12545 ft | 383 kts | 115° |
| 2026-05-01 14:00 | 14.76954 | -16.74079 | 13185 ft | 387 kts | 115° |
| 2026-05-01 14:00 | 14.75849 | -16.71523 | 13812 ft | 391 kts | 115° |
| 2026-05-01 14:00 | 14.74747 | -16.68976 | 14407 ft | 395 kts | 115° |
| 2026-05-01 14:01 | 14.73618 | -16.66367 | 14995 ft | 399 kts | 115° |
| 2026-05-01 14:01 | 14.72476 | -16.63727 | 15578 ft | 403 kts | 114° |
| 2026-05-01 14:01 | 14.71336 | -16.61093 | 16144 ft | 407 kts | 114° |
| 2026-05-01 14:01 | 14.70165 | -16.58388 | 16707 ft | 411 kts | 114° |
| 2026-05-01 14:02 | 14.69000 | -16.55695 | 17252 ft | 415 kts | 114° |
| 2026-05-01 14:02 | 14.67825 | -16.52980 | 17783 ft | 418 kts | 114° |
| 2026-05-01 14:02 | 14.66624 | -16.50207 | 18309 ft | 422 kts | 114° |
| 2026-05-01 14:02 | 14.65424 | -16.47437 | 18821 ft | 426 kts | 114° |
| 2026-05-01 14:03 | 14.64215 | -16.44647 | 19323 ft | 429 kts | 114° |
| 2026-05-01 14:03 | 14.62994 | -16.41831 | 19805 ft | 433 kts | 114° |
| 2026-05-01 14:03 | 14.61759 | -16.38985 | 20262 ft | 437 kts | 114° |
| 2026-05-01 14:03 | 14.60516 | -16.36117 | 20708 ft | 441 kts | 114° |
| 2026-05-01 14:04 | 14.59260 | -16.33224 | 21149 ft | 445 kts | 114° |
| 2026-05-01 14:04 | 14.57991 | -16.30302 | 21578 ft | 448 kts | 114° |
| 2026-05-01 14:04 | 14.56708 | -16.27350 | 21998 ft | 452 kts | 114° |
| 2026-05-01 14:04 | 14.55858 | -16.25394 | 22269 ft | 454 kts | 114° |
| 2026-05-01 14:05 | 14.54126 | -16.21411 | 22804 ft | 459 kts | 114° |
| 2026-05-01 14:05 | 14.52816 | -16.18400 | 23199 ft | 462 kts | 114° |
| 2026-05-01 14:05 | 14.51496 | -16.15366 | 23605 ft | 465 kts | 114° |
| 2026-05-01 14:05 | 14.50179 | -16.12341 | 24007 ft | 468 kts | 114° |
| 2026-05-01 14:06 | 14.48844 | -16.09275 | 24408 ft | 471 kts | 114° |
| 2026-05-01 14:06 | 14.47503 | -16.06198 | 24818 ft | 474 kts | 114° |
| 2026-05-01 14:06 | 14.46141 | -16.03072 | 25224 ft | 477 kts | 114° |
| 2026-05-01 14:06 | 14.44787 | -15.99967 | 25625 ft | 481 kts | 114° |
| 2026-05-01 14:07 | 14.43400 | -15.96789 | 26036 ft | 484 kts | 114° |
| 2026-05-01 14:07 | 14.42024 | -15.93636 | 26440 ft | 487 kts | 114° |
| 2026-05-01 14:07 | 14.40620 | -15.90422 | 26860 ft | 490 kts | 114° |
| 2026-05-01 14:08 | 14.37810 | -15.83990 | 27692 ft | 496 kts | 114° |
| 2026-05-01 14:08 | 14.36398 | -15.80762 | 28121 ft | 499 kts | 114° |
| 2026-05-01 14:08 | 14.34963 | -15.77482 | 28569 ft | 502 kts | 114° |
| 2026-05-01 14:08 | 14.33529 | -15.74206 | 29020 ft | 505 kts | 114° |
| 2026-05-01 14:09 | 14.32091 | -15.70922 | 29515 ft | 506 kts | 114° |
| 2026-05-01 14:09 | 14.30653 | -15.67637 | 30126 ft | 504 kts | 114° |
| 2026-05-01 14:09 | 14.29213 | -15.64350 | 30766 ft | 501 kts | 114° |
| 2026-05-01 14:09 | 14.27785 | -15.61094 | 31353 ft | 499 kts | 114° |
| 2026-05-01 14:10 | 14.26358 | -15.57840 | 31891 ft | 498 kts | 115° |
| 2026-05-01 14:10 | 14.24933 | -15.54590 | 32434 ft | 498 kts | 115° |
| 2026-05-01 14:10 | 14.23504 | -15.51335 | 32942 ft | 498 kts | 115° |
| 2026-05-01 14:10 | 14.22162 | -15.48057 | 33078 ft | 503 kts | 109° |
| 2026-05-01 14:11 | 14.21160 | -15.44617 | 33102 ft | 501 kts | 106° |
| 2026-05-01 14:11 | 14.18401 | -15.34222 | 32998 ft | 497 kts | 106° |
| 2026-05-01 14:12 | 14.16580 | -15.27394 | 32948 ft | 496 kts | 106° |
| 2026-05-01 14:12 | 14.14738 | -15.20516 | 32934 ft | 497 kts | 106° |
| 2026-05-01 14:13 | 14.13207 | -15.14810 | 32945 ft | 497 kts | 106° |
| 2026-05-01 14:13 | 14.11060 | -15.06825 | 32953 ft | 497 kts | 107° |
| 2026-05-01 14:14 | 14.09209 | -14.99952 | 32952 ft | 497 kts | 107° |
| 2026-05-01 14:14 | 14.07364 | -14.93109 | 32952 ft | 497 kts | 106° |
| 2026-05-01 14:15 | 14.05518 | -14.86275 | 32950 ft | 497 kts | 106° |
| 2026-05-01 14:15 | 14.03666 | -14.79429 | 32939 ft | 497 kts | 106° |
| 2026-05-01 14:16 | 14.01826 | -14.72633 | 32928 ft | 497 kts | 106° |
| 2026-05-01 14:16 | 13.99970 | -14.65791 | 32919 ft | 497 kts | 106° |
| 2026-05-01 14:17 | 13.98114 | -14.58953 | 32910 ft | 497 kts | 106° |
| 2026-05-01 14:17 | 13.96262 | -14.52140 | 32907 ft | 495 kts | 106° |
| 2026-05-01 14:18 | 13.94413 | -14.45344 | 32910 ft | 494 kts | 106° |
| 2026-05-01 14:18 | 13.92865 | -14.39663 | 32907 ft | 495 kts | 106° |
| 2026-05-01 14:19 | 13.90695 | -14.31707 | 32897 ft | 495 kts | 107° |
| 2026-05-01 14:19 | 13.88844 | -14.24931 | 32897 ft | 495 kts | 107° |
| 2026-05-01 14:20 | 13.86053 | -14.14724 | 32894 ft | 495 kts | 107° |
| 2026-05-01 14:21 | 13.84192 | -14.07932 | 32892 ft | 495 kts | 107° |
| 2026-05-01 14:21 | 13.82322 | -14.01110 | 32890 ft | 495 kts | 107° |
| 2026-05-01 14:22 | 13.79520 | -13.90903 | 32890 ft | 495 kts | 107° |
| 2026-05-01 14:22 | 13.77661 | -13.84147 | 32891 ft | 495 kts | 107° |
| 2026-05-01 14:23 | 13.75782 | -13.77316 | 32891 ft | 495 kts | 107° |
| 2026-05-01 14:23 | 13.73914 | -13.70544 | 32891 ft | 495 kts | 107° |
| 2026-05-01 14:24 | 13.72109 | -13.63712 | 32889 ft | 495 kts | 102° |
| 2026-05-01 14:24 | 13.70815 | -13.56806 | 32892 ft | 495 kts | 101° |
| 2026-05-01 14:25 | 13.69513 | -13.49886 | 32893 ft | 494 kts | 102° |
| 2026-05-01 14:25 | 13.68189 | -13.42961 | 32895 ft | 494 kts | 102° |
| 2026-05-01 14:26 | 13.66180 | -13.32581 | 32895 ft | 493 kts | 102° |
| 2026-05-01 14:27 | 13.64842 | -13.25711 | 32896 ft | 492 kts | 102° |
| 2026-05-01 14:27 | 13.63489 | -13.18783 | 32897 ft | 492 kts | 102° |
| 2026-05-01 14:28 | 13.61473 | -13.08493 | 32898 ft | 492 kts | 102° |
| 2026-05-01 14:28 | 13.60118 | -13.01597 | 32898 ft | 491 kts | 102° |
| 2026-05-01 14:29 | 13.58770 | -12.94740 | 32896 ft | 491 kts | 102° |
| 2026-05-01 14:30 | 13.56067 | -12.81036 | 32895 ft | 490 kts | 102° |
| 2026-05-01 14:31 | 13.54038 | -12.70777 | 32895 ft | 490 kts | 102° |
| 2026-05-01 14:31 | 13.52677 | -12.63912 | 32897 ft | 490 kts | 102° |
| 2026-05-01 14:32 | 13.51316 | -12.57055 | 32899 ft | 490 kts | 102° |
| 2026-05-01 14:32 | 13.49966 | -12.50262 | 32901 ft | 489 kts | 102° |
| 2026-05-01 14:33 | 13.48600 | -12.43396 | 32900 ft | 489 kts | 102° |
| 2026-05-01 14:33 | 13.47239 | -12.36571 | 32887 ft | 489 kts | 102° |
| 2026-05-01 14:34 | 13.45876 | -12.29744 | 32862 ft | 490 kts | 102° |
| 2026-05-01 14:34 | 13.44503 | -12.22876 | 32849 ft | 490 kts | 102° |
| 2026-05-01 14:35 | 13.43140 | -12.16065 | 32851 ft | 490 kts | 102° |
| 2026-05-01 14:35 | 13.41773 | -12.09248 | 32856 ft | 490 kts | 102° |
| 2026-05-01 14:36 | 13.40400 | -12.02408 | 32858 ft | 490 kts | 102° |
| 2026-05-01 14:36 | 13.39025 | -11.95569 | 32859 ft | 490 kts | 102° |
| 2026-05-01 14:37 | 13.37648 | -11.88730 | 32861 ft | 490 kts | 102° |
| 2026-05-01 14:37 | 13.36272 | -11.81902 | 32862 ft | 489 kts | 102° |
| 2026-05-01 14:38 | 13.34894 | -11.75077 | 32867 ft | 489 kts | 102° |
| 2026-05-01 14:38 | 13.33515 | -11.68258 | 32871 ft | 489 kts | 102° |
| 2026-05-01 14:39 | 13.32137 | -11.61452 | 32873 ft | 489 kts | 102° |
| 2026-05-01 14:39 | 13.30753 | -11.54630 | 32874 ft | 489 kts | 102° |
| 2026-05-01 14:40 | 13.29368 | -11.47807 | 32876 ft | 489 kts | 102° |
| 2026-05-01 14:40 | 13.27988 | -11.41019 | 32881 ft | 488 kts | 102° |
| 2026-05-01 14:41 | 13.26600 | -11.34203 | 32886 ft | 488 kts | 102° |
| 2026-05-01 14:41 | 13.25211 | -11.27393 | 32893 ft | 488 kts | 102° |
| 2026-05-01 14:42 | 13.23816 | -11.20563 | 32901 ft | 488 kts | 102° |
| 2026-05-01 14:42 | 13.22430 | -11.13784 | 32908 ft | 488 kts | 102° |
| 2026-05-01 14:43 | 13.21034 | -11.06967 | 32915 ft | 488 kts | 102° |
| 2026-05-01 14:43 | 13.19641 | -11.00178 | 32923 ft | 488 kts | 102° |
| 2026-05-01 14:44 | 13.18252 | -10.93412 | 32921 ft | 488 kts | 102° |
| 2026-05-01 14:44 | 13.16154 | -10.83214 | 32907 ft | 488 kts | 102° |
| 2026-05-01 14:45 | 13.14052 | -10.73018 | 32895 ft | 488 kts | 102° |
| 2026-05-01 14:46 | 13.12650 | -10.66233 | 32899 ft | 488 kts | 102° |
| 2026-05-01 14:46 | 13.10537 | -10.56014 | 32909 ft | 488 kts | 102° |
| 2026-05-01 14:47 | 13.09135 | -10.49251 | 32916 ft | 488 kts | 102° |
| 2026-05-01 14:48 | 13.07019 | -10.39063 | 32924 ft | 487 kts | 102° |
| 2026-05-01 14:48 | 13.04893 | -10.28871 | 32927 ft | 487 kts | 102° |
| 2026-05-01 14:49 | 13.02063 | -10.15329 | 32899 ft | 487 kts | 102° |
| 2026-05-01 14:50 | 12.99217 | -10.01748 | 32877 ft | 488 kts | 102° |
| 2026-05-01 14:51 | 12.97089 | -9.91617 | 32881 ft | 488 kts | 102° |
| 2026-05-01 14:52 | 12.94945 | -9.81433 | 32883 ft | 488 kts | 102° |
| 2026-05-01 14:53 | 12.92794 | -9.71225 | 32886 ft | 489 kts | 102° |
| 2026-05-01 14:53 | 12.91365 | -9.64428 | 32889 ft | 489 kts | 102° |
| 2026-05-01 14:54 | 12.89940 | -9.57665 | 32893 ft | 489 kts | 102° |
| 2026-05-01 14:54 | 12.88505 | -9.50861 | 32896 ft | 489 kts | 102° |
| 2026-05-01 14:55 | 12.87074 | -9.44084 | 32900 ft | 489 kts | 102° |
| 2026-05-01 14:55 | 12.85634 | -9.37282 | 32906 ft | 489 kts | 102° |
| 2026-05-01 14:56 | 12.84193 | -9.30475 | 32912 ft | 490 kts | 102° |
| 2026-05-01 14:56 | 12.82750 | -9.23670 | 32924 ft | 490 kts | 102° |
| 2026-05-01 14:57 | 12.81303 | -9.16857 | 32935 ft | 490 kts | 102° |
| 2026-05-01 14:57 | 12.79135 | -9.06666 | 32939 ft | 490 kts | 102° |
| 2026-05-01 14:58 | 12.77684 | -8.99854 | 32935 ft | 490 kts | 102° |
| 2026-05-01 14:58 | 12.76230 | -8.93038 | 32938 ft | 491 kts | 102° |
| 2026-05-01 14:59 | 12.74782 | -8.86261 | 32946 ft | 491 kts | 102° |
| 2026-05-01 14:59 | 12.73316 | -8.79406 | 32955 ft | 491 kts | 102° |
| 2026-05-01 15:00 | 12.71130 | -8.69205 | 32964 ft | 491 kts | 102° |
| 2026-05-01 15:01 | 12.69659 | -8.62348 | 32961 ft | 492 kts | 102° |
| 2026-05-01 15:01 | 12.68191 | -8.55518 | 32952 ft | 492 kts | 102° |
| 2026-05-01 15:02 | 12.66727 | -8.48714 | 32942 ft | 493 kts | 102° |
| 2026-05-01 15:02 | 12.65254 | -8.41877 | 32942 ft | 493 kts | 102° |
| 2026-05-01 15:03 | 12.63774 | -8.35016 | 32947 ft | 493 kts | 102° |
| 2026-05-01 15:03 | 12.62301 | -8.28197 | 32954 ft | 493 kts | 102° |
| 2026-05-01 15:04 | 12.60816 | -8.21332 | 32957 ft | 494 kts | 102° |
| 2026-05-01 15:04 | 12.59332 | -8.14479 | 32965 ft | 492 kts | 102° |
| 2026-05-01 15:05 | 12.57856 | -8.07672 | 32954 ft | 489 kts | 102° |
| 2026-05-01 15:05 | 12.56380 | -8.00872 | 32916 ft | 489 kts | 102° |
| 2026-05-01 15:06 | 12.54891 | -7.94103 | 32900 ft | 489 kts | 105° |
| 2026-05-01 15:06 | 12.52590 | -7.87556 | 32907 ft | 490 kts | 111° |
| 2026-05-01 15:07 | 12.50103 | -7.81079 | 32906 ft | 491 kts | 111° |
| 2026-05-01 15:07 | 12.47598 | -7.74558 | 32911 ft | 491 kts | 111° |
| 2026-05-01 15:08 | 12.45103 | -7.68067 | 32911 ft | 491 kts | 111° |
| 2026-05-01 15:08 | 12.42617 | -7.61603 | 32909 ft | 491 kts | 111° |
| 2026-05-01 15:09 | 12.40111 | -7.55094 | 32908 ft | 491 kts | 111° |
| 2026-05-01 15:09 | 12.37618 | -7.48625 | 32907 ft | 491 kts | 111° |
| 2026-05-01 15:10 | 12.35116 | -7.42134 | 32906 ft | 491 kts | 111° |
| 2026-05-01 15:10 | 12.31367 | -7.32420 | 32902 ft | 491 kts | 111° |
| 2026-05-01 15:11 | 12.27606 | -7.22687 | 32899 ft | 492 kts | 111° |
| 2026-05-01 15:12 | 12.25101 | -7.16209 | 32899 ft | 492 kts | 111° |
| 2026-05-01 15:12 | 12.21332 | -7.06475 | 32901 ft | 492 kts | 111° |
| 2026-05-01 15:14 | 12.15035 | -6.90235 | 32908 ft | 493 kts | 111° |
| 2026-05-01 15:14 | 12.11235 | -6.80453 | 32908 ft | 493 kts | 111° |
| 2026-05-01 15:15 | 12.06176 | -6.67446 | 32905 ft | 494 kts | 111° |
| 2026-05-01 15:16 | 12.01119 | -6.54464 | 32908 ft | 494 kts | 111° |
| 2026-05-01 15:18 | 11.94756 | -6.38157 | 32898 ft | 495 kts | 111° |
| 2026-05-01 15:19 | 11.89668 | -6.25142 | 32893 ft | 495 kts | 111° |
| 2026-05-01 15:19 | 11.85832 | -6.15342 | 32902 ft | 495 kts | 111° |
| 2026-05-01 15:20 | 11.82004 | -6.05572 | 32911 ft | 496 kts | 111° |
| 2026-05-01 15:21 | 11.79441 | -5.99039 | 32913 ft | 496 kts | 111° |
| 2026-05-01 15:21 | 11.76883 | -5.92525 | 32908 ft | 496 kts | 111° |
| 2026-05-01 15:22 | 11.73042 | -5.82749 | 32901 ft | 495 kts | 111° |
| 2026-05-01 15:22 | 11.70487 | -5.76255 | 32900 ft | 495 kts | 111° |
| 2026-05-01 15:23 | 11.67923 | -5.69740 | 32902 ft | 495 kts | 111° |
| 2026-05-01 15:23 | 11.65358 | -5.63227 | 32903 ft | 495 kts | 111° |
| 2026-05-01 15:24 | 11.62808 | -5.56759 | 32904 ft | 495 kts | 111° |
| 2026-05-01 15:24 | 11.60244 | -5.50261 | 32905 ft | 494 kts | 111° |
| 2026-05-01 15:25 | 11.57682 | -5.43770 | 32907 ft | 493 kts | 111° |
| 2026-05-01 15:25 | 11.55121 | -5.37290 | 32909 ft | 494 kts | 111° |
| 2026-05-01 15:26 | 11.52555 | -5.30800 | 32910 ft | 493 kts | 112° |
| 2026-05-01 15:26 | 11.50002 | -5.24347 | 32912 ft | 493 kts | 112° |
| 2026-05-01 15:27 | 11.47442 | -5.17879 | 32911 ft | 492 kts | 112° |
| 2026-05-01 15:28 | 11.43605 | -5.08196 | 32909 ft | 492 kts | 112° |
| 2026-05-01 15:28 | 11.41049 | -5.01751 | 32907 ft | 492 kts | 112° |
| 2026-05-01 15:29 | 11.37200 | -4.92053 | 32903 ft | 491 kts | 112° |
| 2026-05-01 15:30 | 11.32085 | -4.79183 | 32878 ft | 491 kts | 112° |
| 2026-05-01 15:31 | 11.24401 | -4.59884 | 32880 ft | 490 kts | 112° |
| 2026-05-01 15:32 | 11.19288 | -4.47066 | 32892 ft | 490 kts | 112° |
| 2026-05-01 15:34 | 11.11200 | -4.28027 | 32870 ft | 489 kts | 116° |